Terminal Aerodrome Forecast
Issued by NWS

Home | Current Version | Previous Version | Text Only | Print | Product List | Glossary On
Versions: 1 2 3 4 5 6 7 8 9 10 11 12 13
898
FTUS46 KPDT 291120
TAFDLS
TAF
KDLS 291120Z 2912/3012 30010KT P6SM SCT050 SCT200
     FM291600 31012G22KT P6SM SCT060
     FM291900 30018G28KT P6SM SCT070
     FM300300 31012G20KT P6SM SKC
     FM300700 31010KT P6SM SCT250=

USA.gov is the U.S. government's official web portal to all federal, state and local government web resources and services.